sensor_id;sensor_type;location;lat;lon;timestamp;P1;durP1;ratioP1;P2;durP2;ratioP2
73219;SDS011;61434;43.538;-5.688;2023-01-25T00:01:59;12.93;;;7.45;;
73219;SDS011;61434;43.538;-5.688;2023-01-25T00:04:25;12.33;;;7.40;;
73219;SDS011;61434;43.538;-5.688;2023-01-25T00:06:51;12.82;;;7.18;;
73219;SDS011;61434;43.538;-5.688;2023-01-25T00:09:16;13.87;;;7.67;;
73219;SDS011;61434;43.538;-5.688;2023-01-25T00:11:42;20.67;;;7.72;;
73219;SDS011;61434;43.538;-5.688;2023-01-25T00:14:09;13.23;;;6.67;;
73219;SDS011;61434;43.538;-5.688;2023-01-25T00:16:38;12.13;;;6.45;;
73219;SDS011;61434;43.538;-5.688;2023-01-25T00:19:05;13.65;;;6.90;;
73219;SDS011;61434;43.538;-5.688;2023-01-25T00:21:31;14.00;;;7.57;;
73219;SDS011;61434;43.538;-5.688;2023-01-25T00:23:59;14.18;;;7.28;;
73219;SDS011;61434;43.538;-5.688;2023-01-25T00:26:24;13.13;;;7.20;;
73219;SDS011;61434;43.538;-5.688;2023-01-25T00:28:53;12.73;;;6.90;;
73219;SDS011;61434;43.538;-5.688;2023-01-25T00:31:21;13.45;;;6.95;;
73219;SDS011;61434;43.538;-5.688;2023-01-25T00:33:59;13.77;;;7.20;;
73219;SDS011;61434;43.538;-5.688;2023-01-25T00:38:58;16.45;;;8.55;;
73219;SDS011;61434;43.538;-5.688;2023-01-25T00:41:24;12.20;;;7.20;;
73219;SDS011;61434;43.538;-5.688;2023-01-25T00:43:50;13.20;;;7.13;;
73219;SDS011;61434;43.538;-5.688;2023-01-25T00:46:15;14.40;;;7.73;;
73219;SDS011;61434;43.538;-5.688;2023-01-25T00:48:42;12.88;;;7.25;;
73219;SDS011;61434;43.538;-5.688;2023-01-25T00:51:07;13.13;;;7.07;;
73219;SDS011;61434;43.538;-5.688;2023-01-25T00:53:33;12.80;;;6.70;;
73219;SDS011;61434;43.538;-5.688;2023-01-25T00:55:59;12.98;;;6.82;;
73219;SDS011;61434;43.538;-5.688;2023-01-25T00:58:24;13.40;;;7.13;;
73219;SDS011;61434;43.538;-5.688;2023-01-25T01:00:52;14.30;;;7.22;;
73219;SDS011;61434;43.538;-5.688;2023-01-25T01:03:18;12.40;;;6.75;;
73219;SDS011;61434;43.538;-5.688;2023-01-25T01:05:44;12.43;;;6.33;;
73219;SDS011;61434;43.538;-5.688;2023-01-25T01:08:10;12.75;;;6.53;;
73219;SDS011;61434;43.538;-5.688;2023-01-25T01:10:37;9.98;;;5.18;;
73219;SDS011;61434;43.538;-5.688;2023-01-25T01:13:02;10.47;;;5.53;;
73219;SDS011;61434;43.538;-5.688;2023-01-25T01:15:28;11.63;;;5.40;;
73219;SDS011;61434;43.538;-5.688;2023-01-25T01:17:54;12.20;;;5.30;;
73219;SDS011;61434;43.538;-5.688;2023-01-25T01:20:19;11.35;;;6.20;;
73219;SDS011;61434;43.538;-5.688;2023-01-25T01:22:45;12.63;;;5.87;;
73219;SDS011;61434;43.538;-5.688;2023-01-25T01:25:10;10.07;;;4.85;;
73219;SDS011;61434;43.538;-5.688;2023-01-25T01:27:37;12.90;;;6.10;;
73219;SDS011;61434;43.538;-5.688;2023-01-25T01:30:03;9.63;;;4.80;;
73219;SDS011;61434;43.538;-5.688;2023-01-25T01:32:29;10.45;;;4.30;;
73219;SDS011;61434;43.538;-5.688;2023-01-25T01:34:54;9.27;;;3.93;;
73219;SDS011;61434;43.538;-5.688;2023-01-25T01:37:20;9.67;;;4.70;;
73219;SDS011;61434;43.538;-5.688;2023-01-25T01:39:45;7.97;;;4.33;;
73219;SDS011;61434;43.538;-5.688;2023-01-25T01:42:10;8.52;;;4.40;;
73219;SDS011;61434;43.538;-5.688;2023-01-25T01:44:46;9.47;;;4.63;;
73219;SDS011;61434;43.538;-5.688;2023-01-25T01:47:26;10.35;;;4.63;;
73219;SDS011;61434;43.538;-5.688;2023-01-25T01:50:00;9.75;;;4.97;;
73219;SDS011;61434;43.538;-5.688;2023-01-25T01:52:29;10.47;;;4.83;;
73219;SDS011;61434;43.538;-5.688;2023-01-25T01:55:12;10.52;;;5.28;;
73219;SDS011;61434;43.538;-5.688;2023-01-25T01:57:42;11.63;;;5.95;;
73219;SDS011;61434;43.538;-5.688;2023-01-25T02:02:42;12.05;;;6.35;;
73219;SDS011;61434;43.538;-5.688;2023-01-25T02:05:10;14.07;;;6.60;;
73219;SDS011;61434;43.538;-5.688;2023-01-25T02:07:42;11.40;;;6.43;;
73219;SDS011;61434;43.538;-5.688;2023-01-25T02:10:11;12.43;;;6.10;;
73219;SDS011;61434;43.538;-5.688;2023-01-25T02:12:36;11.50;;;6.07;;
73219;SDS011;61434;43.538;-5.688;2023-01-25T02:15:03;12.93;;;6.80;;
73219;SDS011;61434;43.538;-5.688;2023-01-25T02:17:31;12.02;;;6.50;;
73219;SDS011;61434;43.538;-5.688;2023-01-25T02:22:44;11.68;;;6.00;;
73219;SDS011;61434;43.538;-5.688;2023-01-25T02:25:35;10.98;;;5.95;;
73219;SDS011;61434;43.538;-5.688;2023-01-25T02:28:03;13.40;;;6.95;;
73219;SDS011;61434;43.538;-5.688;2023-01-25T02:30:50;11.43;;;6.57;;
73219;SDS011;61434;43.538;-5.688;2023-01-25T02:33:16;12.80;;;7.55;;
73219;SDS011;61434;43.538;-5.688;2023-01-25T02:35:43;13.63;;;7.17;;
73219;SDS011;61434;43.538;-5.688;2023-01-25T02:38:14;15.63;;;8.85;;
73219;SDS011;61434;43.538;-5.688;2023-01-25T02:40:44;12.77;;;7.85;;
73219;SDS011;61434;43.538;-5.688;2023-01-25T02:43:36;14.65;;;8.48;;
73219;SDS011;61434;43.538;-5.688;2023-01-25T02:46:05;14.45;;;8.90;;
73219;SDS011;61434;43.538;-5.688;2023-01-25T02:48:38;15.27;;;7.70;;
73219;SDS011;61434;43.538;-5.688;2023-01-25T02:51:05;13.25;;;8.15;;
73219;SDS011;61434;43.538;-5.688;2023-01-25T02:53:32;17.17;;;11.17;;
73219;SDS011;61434;43.538;-5.688;2023-01-25T02:55:58;19.02;;;13.93;;
73219;SDS011;61434;43.538;-5.688;2023-01-25T02:58:23;16.80;;;11.77;;
73219;SDS011;61434;43.538;-5.688;2023-01-25T03:00:49;18.10;;;12.77;;
73219;SDS011;61434;43.538;-5.688;2023-01-25T03:03:14;17.02;;;12.70;;
73219;SDS011;61434;43.538;-5.688;2023-01-25T03:05:40;18.73;;;13.53;;
73219;SDS011;61434;43.538;-5.688;2023-01-25T03:08:05;21.53;;;14.80;;
73219;SDS011;61434;43.538;-5.688;2023-01-25T03:10:31;22.13;;;13.32;;
73219;SDS011;61434;43.538;-5.688;2023-01-25T03:12:56;23.97;;;14.23;;
73219;SDS011;61434;43.538;-5.688;2023-01-25T03:15:22;20.43;;;12.57;;
73219;SDS011;61434;43.538;-5.688;2023-01-25T03:17:47;22.30;;;13.40;;
73219;SDS011;61434;43.538;-5.688;2023-01-25T03:20:12;20.27;;;11.68;;
73219;SDS011;61434;43.538;-5.688;2023-01-25T03:22:38;21.10;;;11.40;;
73219;SDS011;61434;43.538;-5.688;2023-01-25T03:25:03;20.23;;;11.17;;
73219;SDS011;61434;43.538;-5.688;2023-01-25T03:27:29;19.42;;;10.68;;
73219;SDS011;61434;43.538;-5.688;2023-01-25T03:29:55;17.17;;;9.70;;
73219;SDS011;61434;43.538;-5.688;2023-01-25T03:32:20;17.63;;;10.03;;
73219;SDS011;61434;43.538;-5.688;2023-01-25T03:34:46;19.48;;;9.60;;
73219;SDS011;61434;43.538;-5.688;2023-01-25T03:37:12;18.30;;;10.02;;
73219;SDS011;61434;43.538;-5.688;2023-01-25T03:39:37;17.90;;;9.40;;
73219;SDS011;61434;43.538;-5.688;2023-01-25T03:42:03;21.70;;;9.90;;
73219;SDS011;61434;43.538;-5.688;2023-01-25T03:44:29;19.48;;;9.88;;
73219;SDS011;61434;43.538;-5.688;2023-01-25T03:46:54;20.03;;;10.23;;
73219;SDS011;61434;43.538;-5.688;2023-01-25T03:49:19;20.80;;;11.07;;
73219;SDS011;61434;43.538;-5.688;2023-01-25T03:51:45;18.40;;;9.87;;
73219;SDS011;61434;43.538;-5.688;2023-01-25T03:54:10;22.30;;;12.37;;
73219;SDS011;61434;43.538;-5.688;2023-01-25T03:56:36;21.75;;;12.00;;
73219;SDS011;61434;43.538;-5.688;2023-01-25T03:59:02;19.88;;;11.50;;
73219;SDS011;61434;43.538;-5.688;2023-01-25T04:01:28;21.47;;;12.47;;
73219;SDS011;61434;43.538;-5.688;2023-01-25T04:03:53;17.98;;;12.05;;
73219;SDS011;61434;43.538;-5.688;2023-01-25T04:06:19;20.23;;;13.83;;
73219;SDS011;61434;43.538;-5.688;2023-01-25T04:08:44;21.03;;;12.70;;
73219;SDS011;61434;43.538;-5.688;2023-01-25T04:11:10;22.33;;;12.93;;
73219;SDS011;61434;43.538;-5.688;2023-01-25T04:13:36;19.75;;;12.13;;
73219;SDS011;61434;43.538;-5.688;2023-01-25T04:16:03;24.37;;;13.37;;
73219;SDS011;61434;43.538;-5.688;2023-01-25T04:18:29;24.23;;;14.48;;
73219;SDS011;61434;43.538;-5.688;2023-01-25T04:20:55;31.67;;;16.38;;
73219;SDS011;61434;43.538;-5.688;2023-01-25T04:23:21;25.23;;;13.40;;
73219;SDS011;61434;43.538;-5.688;2023-01-25T04:25:54;24.33;;;12.80;;
73219;SDS011;61434;43.538;-5.688;2023-01-25T04:28:21;23.55;;;12.50;;
73219;SDS011;61434;43.538;-5.688;2023-01-25T04:30:47;21.23;;;11.13;;
73219;SDS011;61434;43.538;-5.688;2023-01-25T04:33:13;19.85;;;9.35;;
73219;SDS011;61434;43.538;-5.688;2023-01-25T04:35:39;17.67;;;9.10;;
73219;SDS011;61434;43.538;-5.688;2023-01-25T04:38:04;14.90;;;8.93;;
73219;SDS011;61434;43.538;-5.688;2023-01-25T04:40:31;16.60;;;9.05;;
73219;SDS011;61434;43.538;-5.688;2023-01-25T04:42:56;22.37;;;10.77;;
73219;SDS011;61434;43.538;-5.688;2023-01-25T04:45:22;20.20;;;10.65;;
73219;SDS011;61434;43.538;-5.688;2023-01-25T04:47:53;19.00;;;9.85;;
73219;SDS011;61434;43.538;-5.688;2023-01-25T04:50:20;17.17;;;8.93;;
73219;SDS011;61434;43.538;-5.688;2023-01-25T04:52:46;18.15;;;9.18;;
73219;SDS011;61434;43.538;-5.688;2023-01-25T04:55:11;23.60;;;10.50;;
73219;SDS011;61434;43.538;-5.688;2023-01-25T04:57:37;18.40;;;10.10;;
73219;SDS011;61434;43.538;-5.688;2023-01-25T05:00:02;22.93;;;10.70;;
73219;SDS011;61434;43.538;-5.688;2023-01-25T05:02:28;22.52;;;11.90;;
73219;SDS011;61434;43.538;-5.688;2023-01-25T05:04:54;21.00;;;10.80;;
73219;SDS011;61434;43.538;-5.688;2023-01-25T05:07:19;22.50;;;10.70;;
73219;SDS011;61434;43.538;-5.688;2023-01-25T05:09:45;20.65;;;9.80;;
73219;SDS011;61434;43.538;-5.688;2023-01-25T05:12:10;21.70;;;11.33;;
73219;SDS011;61434;43.538;-5.688;2023-01-25T05:14:37;20.15;;;10.13;;
73219;SDS011;61434;43.538;-5.688;2023-01-25T05:17:04;20.80;;;9.60;;
73219;SDS011;61434;43.538;-5.688;2023-01-25T05:19:30;19.57;;;10.47;;
73219;SDS011;61434;43.538;-5.688;2023-01-25T05:21:56;22.42;;;10.32;;
73219;SDS011;61434;43.538;-5.688;2023-01-25T05:24:22;20.40;;;10.23;;
73219;SDS011;61434;43.538;-5.688;2023-01-25T05:26:48;19.10;;;9.57;;
73219;SDS011;61434;43.538;-5.688;2023-01-25T05:29:29;20.92;;;9.98;;
73219;SDS011;61434;43.538;-5.688;2023-01-25T05:31:57;21.45;;;9.95;;
73219;SDS011;61434;43.538;-5.688;2023-01-25T05:34:23;22.23;;;10.07;;
73219;SDS011;61434;43.538;-5.688;2023-01-25T05:36:50;22.20;;;10.57;;
73219;SDS011;61434;43.538;-5.688;2023-01-25T05:39:15;25.05;;;10.30;;
73219;SDS011;61434;43.538;-5.688;2023-01-25T05:41:41;21.83;;;10.03;;
73219;SDS011;61434;43.538;-5.688;2023-01-25T05:44:07;22.23;;;10.60;;
73219;SDS011;61434;43.538;-5.688;2023-01-25T05:46:32;24.33;;;10.83;;
73219;SDS011;61434;43.538;-5.688;2023-01-25T05:48:58;33.00;;;10.25;;
73219;SDS011;61434;43.538;-5.688;2023-01-25T05:51:23;22.63;;;9.77;;
73219;SDS011;61434;43.538;-5.688;2023-01-25T05:53:49;28.70;;;10.40;;
73219;SDS011;61434;43.538;-5.688;2023-01-25T05:56:14;22.87;;;10.63;;
73219;SDS011;61434;43.538;-5.688;2023-01-25T05:58:40;27.25;;;10.98;;
73219;SDS011;61434;43.538;-5.688;2023-01-25T06:01:06;26.83;;;10.90;;
73219;SDS011;61434;43.538;-5.688;2023-01-25T06:03:32;26.08;;;11.00;;
73219;SDS011;61434;43.538;-5.688;2023-01-25T06:05:58;23.23;;;10.50;;
73219;SDS011;61434;43.538;-5.688;2023-01-25T06:08:29;20.90;;;9.80;;
73219;SDS011;61434;43.538;-5.688;2023-01-25T06:10:55;25.33;;;11.27;;
73219;SDS011;61434;43.538;-5.688;2023-01-25T06:13:21;21.48;;;10.27;;
73219;SDS011;61434;43.538;-5.688;2023-01-25T06:15:50;23.00;;;10.93;;
73219;SDS011;61434;43.538;-5.688;2023-01-25T06:18:20;26.50;;;12.13;;
73219;SDS011;61434;43.538;-5.688;2023-01-25T06:20:46;25.77;;;10.60;;
73219;SDS011;61434;43.538;-5.688;2023-01-25T06:23:12;28.70;;;11.82;;
73219;SDS011;61434;43.538;-5.688;2023-01-25T06:25:38;23.13;;;10.98;;
73219;SDS011;61434;43.538;-5.688;2023-01-25T06:28:03;24.73;;;10.13;;
73219;SDS011;61434;43.538;-5.688;2023-01-25T06:30:29;24.20;;;11.70;;
73219;SDS011;61434;43.538;-5.688;2023-01-25T06:32:56;23.43;;;11.07;;
73219;SDS011;61434;43.538;-5.688;2023-01-25T06:35:22;26.95;;;11.95;;
73219;SDS011;61434;43.538;-5.688;2023-01-25T06:37:48;27.13;;;12.00;;
73219;SDS011;61434;43.538;-5.688;2023-01-25T06:40:13;29.93;;;12.50;;
73219;SDS011;61434;43.538;-5.688;2023-01-25T06:42:39;23.70;;;11.80;;
73219;SDS011;61434;43.538;-5.688;2023-01-25T06:45:04;26.83;;;11.23;;
73219;SDS011;61434;43.538;-5.688;2023-01-25T06:47:30;24.45;;;11.90;;
73219;SDS011;61434;43.538;-5.688;2023-01-25T06:49:59;23.23;;;11.50;;
73219;SDS011;61434;43.538;-5.688;2023-01-25T06:52:24;24.83;;;11.15;;
73219;SDS011;61434;43.538;-5.688;2023-01-25T06:54:49;26.60;;;12.67;;
73219;SDS011;61434;43.538;-5.688;2023-01-25T06:57:15;30.83;;;12.60;;
73219;SDS011;61434;43.538;-5.688;2023-01-25T06:59:40;24.45;;;11.95;;
73219;SDS011;61434;43.538;-5.688;2023-01-25T07:02:06;25.57;;;12.67;;
73219;SDS011;61434;43.538;-5.688;2023-01-25T07:04:31;21.43;;;10.77;;
73219;SDS011;61434;43.538;-5.688;2023-01-25T07:06:57;20.80;;;10.50;;
73219;SDS011;61434;43.538;-5.688;2023-01-25T07:09:22;23.20;;;10.63;;
73219;SDS011;61434;43.538;-5.688;2023-01-25T07:11:51;30.73;;;12.60;;
73219;SDS011;61434;43.538;-5.688;2023-01-25T07:14:17;22.15;;;10.95;;
73219;SDS011;61434;43.538;-5.688;2023-01-25T07:16:42;25.07;;;11.03;;
73219;SDS011;61434;43.538;-5.688;2023-01-25T07:19:09;24.27;;;11.82;;
73219;SDS011;61434;43.538;-5.688;2023-01-25T07:21:37;28.43;;;12.70;;
73219;SDS011;61434;43.538;-5.688;2023-01-25T07:24:03;31.65;;;12.40;;
73219;SDS011;61434;43.538;-5.688;2023-01-25T07:26:30;26.48;;;12.02;;
73219;SDS011;61434;43.538;-5.688;2023-01-25T07:28:57;30.20;;;12.90;;
73219;SDS011;61434;43.538;-5.688;2023-01-25T07:31:23;28.52;;;13.00;;
73219;SDS011;61434;43.538;-5.688;2023-01-25T07:33:53;24.20;;;11.43;;
73219;SDS011;61434;43.538;-5.688;2023-01-25T07:36:20;24.63;;;12.25;;
73219;SDS011;61434;43.538;-5.688;2023-01-25T07:38:45;28.50;;;12.77;;
73219;SDS011;61434;43.538;-5.688;2023-01-25T07:41:11;28.00;;;12.98;;
73219;SDS011;61434;43.538;-5.688;2023-01-25T07:43:37;27.03;;;12.47;;
73219;SDS011;61434;43.538;-5.688;2023-01-25T07:46:04;25.75;;;12.07;;
73219;SDS011;61434;43.538;-5.688;2023-01-25T07:48:32;26.67;;;10.73;;
73219;SDS011;61434;43.538;-5.688;2023-01-25T07:51:02;21.30;;;9.32;;
73219;SDS011;61434;43.538;-5.688;2023-01-25T07:53:57;20.93;;;9.47;;
73219;SDS011;61434;43.538;-5.688;2023-01-25T07:56:28;22.45;;;9.77;;
73219;SDS011;61434;43.538;-5.688;2023-01-25T07:58:58;20.25;;;8.82;;
73219;SDS011;61434;43.538;-5.688;2023-01-25T08:01:27;22.77;;;10.50;;
73219;SDS011;61434;43.538;-5.688;2023-01-25T08:03:55;23.85;;;9.48;;
73219;SDS011;61434;43.538;-5.688;2023-01-25T08:06:25;22.17;;;10.57;;
73219;SDS011;61434;43.538;-5.688;2023-01-25T08:08:54;25.52;;;11.52;;
73219;SDS011;61434;43.538;-5.688;2023-01-25T08:11:23;25.25;;;11.43;;
73219;SDS011;61434;43.538;-5.688;2023-01-25T08:13:50;27.63;;;11.45;;
73219;SDS011;61434;43.538;-5.688;2023-01-25T08:16:17;29.43;;;12.73;;
73219;SDS011;61434;43.538;-5.688;2023-01-25T08:18:48;27.92;;;12.07;;
73219;SDS011;61434;43.538;-5.688;2023-01-25T08:21:15;22.75;;;10.63;;
73219;SDS011;61434;43.538;-5.688;2023-01-25T08:23:41;26.17;;;11.38;;
73219;SDS011;61434;43.538;-5.688;2023-01-25T08:26:07;26.50;;;11.77;;
73219;SDS011;61434;43.538;-5.688;2023-01-25T08:28:34;36.40;;;15.20;;
73219;SDS011;61434;43.538;-5.688;2023-01-25T08:31:20;31.90;;;15.03;;
73219;SDS011;61434;43.538;-5.688;2023-01-25T08:33:47;27.52;;;13.35;;
73219;SDS011;61434;43.538;-5.688;2023-01-25T08:36:14;31.08;;;12.82;;
73219;SDS011;61434;43.538;-5.688;2023-01-25T08:38:41;27.02;;;13.13;;
73219;SDS011;61434;43.538;-5.688;2023-01-25T08:41:11;27.80;;;12.77;;
73219;SDS011;61434;43.538;-5.688;2023-01-25T08:43:39;28.10;;;12.38;;
73219;SDS011;61434;43.538;-5.688;2023-01-25T08:46:05;20.77;;;10.17;;
73219;SDS011;61434;43.538;-5.688;2023-01-25T08:48:31;23.85;;;10.57;;
73219;SDS011;61434;43.538;-5.688;2023-01-25T08:50:57;23.37;;;10.17;;
73219;SDS011;61434;43.538;-5.688;2023-01-25T08:53:23;21.92;;;9.95;;
73219;SDS011;61434;43.538;-5.688;2023-01-25T08:55:48;23.03;;;10.13;;
73219;SDS011;61434;43.538;-5.688;2023-01-25T08:58:14;21.95;;;10.55;;
73219;SDS011;61434;43.538;-5.688;2023-01-25T09:00:43;26.38;;;11.55;;
73219;SDS011;61434;43.538;-5.688;2023-01-25T09:03:10;29.00;;;11.07;;
73219;SDS011;61434;43.538;-5.688;2023-01-25T09:05:36;28.38;;;11.77;;
73219;SDS011;61434;43.538;-5.688;2023-01-25T09:08:03;28.33;;;11.93;;
73219;SDS011;61434;43.538;-5.688;2023-01-25T09:10:30;26.88;;;12.02;;
73219;SDS011;61434;43.538;-5.688;2023-01-25T09:12:56;26.50;;;11.50;;
73219;SDS011;61434;43.538;-5.688;2023-01-25T09:15:21;28.20;;;12.38;;
73219;SDS011;61434;43.538;-5.688;2023-01-25T09:17:51;24.90;;;10.97;;
73219;SDS011;61434;43.538;-5.688;2023-01-25T09:20:18;27.00;;;11.70;;
73219;SDS011;61434;43.538;-5.688;2023-01-25T09:22:44;23.90;;;10.32;;
73219;SDS011;61434;43.538;-5.688;2023-01-25T09:25:09;27.40;;;12.27;;
73219;SDS011;61434;43.538;-5.688;2023-01-25T09:27:35;27.17;;;10.75;;
73219;SDS011;61434;43.538;-5.688;2023-01-25T09:30:02;23.92;;;10.48;;
73219;SDS011;61434;43.538;-5.688;2023-01-25T09:32:28;23.50;;;10.30;;
73219;SDS011;61434;43.538;-5.688;2023-01-25T09:34:54;26.08;;;11.82;;
73219;SDS011;61434;43.538;-5.688;2023-01-25T09:37:19;23.13;;;10.17;;
73219;SDS011;61434;43.538;-5.688;2023-01-25T09:39:45;26.67;;;10.50;;
73219;SDS011;61434;43.538;-5.688;2023-01-25T09:47:58;23.45;;;10.18;;
73219;SDS011;61434;43.538;-5.688;2023-01-25T09:50:33;26.17;;;10.60;;
73219;SDS011;61434;43.538;-5.688;2023-01-25T09:55:47;28.13;;;11.40;;
73219;SDS011;61434;43.538;-5.688;2023-01-25T09:58:17;24.38;;;11.40;;
73219;SDS011;61434;43.538;-5.688;2023-01-25T10:00:46;28.67;;;11.80;;
73219;SDS011;61434;43.538;-5.688;2023-01-25T10:05:57;27.17;;;12.90;;
73219;SDS011;61434;43.538;-5.688;2023-01-25T10:08:34;24.73;;;11.47;;
73219;SDS011;61434;43.538;-5.688;2023-01-25T10:11:10;25.77;;;11.27;;
73219;SDS011;61434;43.538;-5.688;2023-01-25T10:13:44;30.73;;;12.52;;
73219;SDS011;61434;43.538;-5.688;2023-01-25T10:16:15;27.57;;;12.43;;
73219;SDS011;61434;43.538;-5.688;2023-01-25T10:21:21;31.05;;;12.75;;
73219;SDS011;61434;43.538;-5.688;2023-01-25T10:24:00;27.83;;;12.55;;
73219;SDS011;61434;43.538;-5.688;2023-01-25T10:26:29;27.27;;;12.18;;
73219;SDS011;61434;43.538;-5.688;2023-01-25T10:31:53;24.42;;;11.45;;
73219;SDS011;61434;43.538;-5.688;2023-01-25T10:34:25;26.65;;;11.07;;
73219;SDS011;61434;43.538;-5.688;2023-01-25T10:36:56;24.52;;;11.55;;
73219;SDS011;61434;43.538;-5.688;2023-01-25T10:39:26;25.77;;;11.55;;
73219;SDS011;61434;43.538;-5.688;2023-01-25T10:41:55;29.13;;;12.53;;
73219;SDS011;61434;43.538;-5.688;2023-01-25T10:44:23;25.20;;;11.85;;
73219;SDS011;61434;43.538;-5.688;2023-01-25T10:49:50;23.88;;;10.73;;
73219;SDS011;61434;43.538;-5.688;2023-01-25T10:52:27;19.77;;;9.85;;
73219;SDS011;61434;43.538;-5.688;2023-01-25T11:02:51;18.52;;;8.45;;
73219;SDS011;61434;43.538;-5.688;2023-01-25T11:07:43;20.40;;;9.07;;
73219;SDS011;61434;43.538;-5.688;2023-01-25T11:15:41;16.67;;;7.57;;
73219;SDS011;61434;43.538;-5.688;2023-01-25T11:18:24;13.55;;;6.85;;
73219;SDS011;61434;43.538;-5.688;2023-01-25T11:21:06;14.75;;;6.68;;
73219;SDS011;61434;43.538;-5.688;2023-01-25T11:23:39;14.40;;;6.93;;
73219;SDS011;61434;43.538;-5.688;2023-01-25T11:26:15;14.80;;;7.17;;
73219;SDS011;61434;43.538;-5.688;2023-01-25T11:28:42;12.93;;;6.63;;
73219;SDS011;61434;43.538;-5.688;2023-01-25T11:31:12;16.30;;;7.13;;
73219;SDS011;61434;43.538;-5.688;2023-01-25T11:33:40;14.82;;;6.78;;
73219;SDS011;61434;43.538;-5.688;2023-01-25T11:38:47;13.52;;;6.82;;
73219;SDS011;61434;43.538;-5.688;2023-01-25T11:41:30;13.27;;;6.47;;
73219;SDS011;61434;43.538;-5.688;2023-01-25T11:52:32;14.40;;;6.75;;
73219;SDS011;61434;43.538;-5.688;2023-01-25T12:03:29;17.58;;;10.23;;
73219;SDS011;61434;43.538;-5.688;2023-01-25T12:06:12;18.52;;;10.90;;
73219;SDS011;61434;43.538;-5.688;2023-01-25T12:19:50;17.70;;;7.88;;
73219;SDS011;61434;43.538;-5.688;2023-01-25T12:22:40;13.93;;;7.10;;
73219;SDS011;61434;43.538;-5.688;2023-01-25T12:28:09;16.57;;;8.50;;
73219;SDS011;61434;43.538;-5.688;2023-01-25T12:30:48;17.50;;;7.85;;
73219;SDS011;61434;43.538;-5.688;2023-01-25T12:44:13;19.60;;;9.73;;
73219;SDS011;61434;43.538;-5.688;2023-01-25T12:54:47;17.67;;;6.57;;
73219;SDS011;61434;43.538;-5.688;2023-01-25T12:57:25;14.43;;;6.50;;
73219;SDS011;61434;43.538;-5.688;2023-01-25T13:02:33;17.08;;;7.72;;
73219;SDS011;61434;43.538;-5.688;2023-01-25T13:05:26;19.80;;;9.07;;
73219;SDS011;61434;43.538;-5.688;2023-01-25T13:08:32;17.07;;;9.43;;
73219;SDS011;61434;43.538;-5.688;2023-01-25T13:11:29;24.20;;;10.80;;
73219;SDS011;61434;43.538;-5.688;2023-01-25T13:19:54;18.52;;;9.90;;
73219;SDS011;61434;43.538;-5.688;2023-01-25T13:25:24;18.02;;;8.00;;
73219;SDS011;61434;43.538;-5.688;2023-01-25T13:27:50;17.67;;;8.67;;
73219;SDS011;61434;43.538;-5.688;2023-01-25T13:30:32;17.45;;;8.27;;
73219;SDS011;61434;43.538;-5.688;2023-01-25T13:32:59;16.25;;;7.47;;
73219;SDS011;61434;43.538;-5.688;2023-01-25T13:37:57;17.38;;;7.75;;
73219;SDS011;61434;43.538;-5.688;2023-01-25T13:40:30;14.53;;;7.00;;
73219;SDS011;61434;43.538;-5.688;2023-01-25T13:42:59;15.73;;;6.90;;
73219;SDS011;61434;43.538;-5.688;2023-01-25T13:45:28;16.95;;;7.60;;
73219;SDS011;61434;43.538;-5.688;2023-01-25T13:53:35;15.90;;;8.30;;
73219;SDS011;61434;43.538;-5.688;2023-01-25T13:56:04;16.20;;;7.95;;
73219;SDS011;61434;43.538;-5.688;2023-01-25T13:58:46;15.63;;;7.53;;
73219;SDS011;61434;43.538;-5.688;2023-01-25T14:01:12;18.67;;;9.13;;
73219;SDS011;61434;43.538;-5.688;2023-01-25T14:03:51;17.38;;;8.50;;
73219;SDS011;61434;43.538;-5.688;2023-01-25T14:08:50;18.90;;;8.52;;
73219;SDS011;61434;43.538;-5.688;2023-01-25T14:11:19;15.80;;;7.60;;
73219;SDS011;61434;43.538;-5.688;2023-01-25T14:16:58;10.55;;;4.20;;
73219;SDS011;61434;43.538;-5.688;2023-01-25T14:19:26;11.75;;;5.63;;
73219;SDS011;61434;43.538;-5.688;2023-01-25T14:22:12;12.10;;;5.78;;
73219;SDS011;61434;43.538;-5.688;2023-01-25T14:27:26;5.20;;;2.20;;
73219;SDS011;61434;43.538;-5.688;2023-01-25T14:29:52;8.40;;;3.42;;
73219;SDS011;61434;43.538;-5.688;2023-01-25T14:32:17;7.80;;;3.70;;
73219;SDS011;61434;43.538;-5.688;2023-01-25T14:34:46;11.98;;;4.50;;
73219;SDS011;61434;43.538;-5.688;2023-01-25T14:37:18;12.03;;;4.90;;
73219;SDS011;61434;43.538;-5.688;2023-01-25T14:39:46;12.25;;;6.50;;
73219;SDS011;61434;43.538;-5.688;2023-01-25T14:42:15;13.00;;;6.80;;
73219;SDS011;61434;43.538;-5.688;2023-01-25T14:44:41;13.00;;;6.50;;
73219;SDS011;61434;43.538;-5.688;2023-01-25T14:52:56;10.52;;;4.50;;
73219;SDS011;61434;43.538;-5.688;2023-01-25T14:55:24;10.30;;;4.27;;
73219;SDS011;61434;43.538;-5.688;2023-01-25T14:57:50;10.07;;;4.00;;
73219;SDS011;61434;43.538;-5.688;2023-01-25T15:00:22;7.85;;;4.40;;
73219;SDS011;61434;43.538;-5.688;2023-01-25T15:02:48;8.60;;;3.95;;
73219;SDS011;61434;43.538;-5.688;2023-01-25T15:05:21;10.65;;;4.15;;
73219;SDS011;61434;43.538;-5.688;2023-01-25T15:07:49;9.60;;;4.53;;
73219;SDS011;61434;43.538;-5.688;2023-01-25T15:12:53;10.73;;;5.17;;
73219;SDS011;61434;43.538;-5.688;2023-01-25T15:15:33;10.23;;;4.70;;
73219;SDS011;61434;43.538;-5.688;2023-01-25T15:17:59;11.05;;;5.13;;
73219;SDS011;61434;43.538;-5.688;2023-01-25T15:23:01;13.02;;;6.28;;
73219;SDS011;61434;43.538;-5.688;2023-01-25T15:25:48;13.60;;;6.75;;
73219;SDS011;61434;43.538;-5.688;2023-01-25T15:28:14;13.80;;;6.83;;
73219;SDS011;61434;43.538;-5.688;2023-01-25T15:30:39;13.40;;;7.18;;
73219;SDS011;61434;43.538;-5.688;2023-01-25T15:33:05;13.17;;;6.30;;
73219;SDS011;61434;43.538;-5.688;2023-01-25T15:35:32;15.73;;;7.75;;
73219;SDS011;61434;43.538;-5.688;2023-01-25T15:37:58;12.87;;;6.37;;
73219;SDS011;61434;43.538;-5.688;2023-01-25T15:40:24;12.38;;;6.20;;
73219;SDS011;61434;43.538;-5.688;2023-01-25T15:42:49;15.73;;;6.70;;
73219;SDS011;61434;43.538;-5.688;2023-01-25T15:45:15;13.47;;;7.17;;
73219;SDS011;61434;43.538;-5.688;2023-01-25T15:47:40;14.33;;;7.30;;
73219;SDS011;61434;43.538;-5.688;2023-01-25T15:50:08;11.20;;;5.97;;
73219;SDS011;61434;43.538;-5.688;2023-01-25T15:52:41;12.27;;;6.43;;
73219;SDS011;61434;43.538;-5.688;2023-01-25T15:55:07;11.65;;;6.13;;
73219;SDS011;61434;43.538;-5.688;2023-01-25T15:57:35;9.73;;;4.63;;
73219;SDS011;61434;43.538;-5.688;2023-01-25T16:00:02;11.45;;;5.40;;
73219;SDS011;61434;43.538;-5.688;2023-01-25T16:02:29;13.25;;;6.05;;
73219;SDS011;61434;43.538;-5.688;2023-01-25T16:04:55;11.47;;;5.83;;
73219;SDS011;61434;43.538;-5.688;2023-01-25T16:07:27;14.80;;;7.13;;
73219;SDS011;61434;43.538;-5.688;2023-01-25T16:09:54;12.67;;;7.03;;
73219;SDS011;61434;43.538;-5.688;2023-01-25T16:12:20;14.48;;;6.80;;
73219;SDS011;61434;43.538;-5.688;2023-01-25T16:14:49;11.73;;;5.67;;
73219;SDS011;61434;43.538;-5.688;2023-01-25T16:17:18;12.70;;;5.60;;
73219;SDS011;61434;43.538;-5.688;2023-01-25T16:19:46;10.40;;;5.38;;
73219;SDS011;61434;43.538;-5.688;2023-01-25T16:22:15;14.05;;;5.35;;
73219;SDS011;61434;43.538;-5.688;2023-01-25T16:24:42;13.43;;;5.23;;
73219;SDS011;61434;43.538;-5.688;2023-01-25T16:27:16;12.38;;;5.95;;
73219;SDS011;61434;43.538;-5.688;2023-01-25T16:30:02;17.17;;;6.70;;
73219;SDS011;61434;43.538;-5.688;2023-01-25T16:32:29;26.33;;;11.10;;
73219;SDS011;61434;43.538;-5.688;2023-01-25T16:34:54;31.83;;;13.10;;
73219;SDS011;61434;43.538;-5.688;2023-01-25T16:37:20;32.93;;;14.33;;
73219;SDS011;61434;43.538;-5.688;2023-01-25T16:39:45;44.93;;;17.67;;